createdAt,value
2022-10-28T00:01:21.825Z,100551.19
2022-10-28T00:03:53.506Z,100549.09
2022-10-28T00:06:23.219Z,100550.03
2022-10-28T00:08:50.764Z,100540.78
2022-10-28T00:11:20.755Z,100536.66
2022-10-28T00:13:48.551Z,100548.34
2022-10-28T00:16:18.960Z,100551.34
2022-10-28T00:18:46.841Z,100535.59
2022-10-28T00:21:20.369Z,100548.16
2022-10-28T00:23:49.668Z,100550.44
2022-10-28T00:26:22.832Z,100551.69
2022-10-28T00:28:58.596Z,100522.81
2022-10-28T00:31:27.767Z,100533.47
2022-10-28T00:33:55.620Z,100535.56
2022-10-28T00:36:28.894Z,100534.34
2022-10-28T00:38:57.020Z,100546.03
2022-10-28T00:41:29.922Z,100546.72
2022-10-28T00:44:00.035Z,100545.19
2022-10-28T00:46:49.377Z,100538.09
2022-10-28T00:49:25.563Z,100538.53
2022-10-28T00:51:56.454Z,100536.22
2022-10-28T00:54:23.825Z,100528.63
2022-10-28T00:56:55.484Z,100536.25
2022-10-28T00:59:33.086Z,100538.84
2022-10-28T01:02:00.944Z,100521.28
2022-10-28T01:04:28.633Z,100538.97
2022-10-28T01:07:18.854Z,100534.53
2022-10-28T01:09:46.239Z,100523.59
2022-10-28T01:12:13.204Z,100543.16
2022-10-28T01:15:17.672Z,100533.63
2022-10-28T01:18:04.911Z,100524.94
2022-10-28T01:20:50.786Z,100534.31
2022-10-28T01:23:26.893Z,100535.16
2022-10-28T01:26:08.979Z,100529.22
2022-10-28T01:29:00.346Z,100536.94
2022-10-28T01:31:43.351Z,100541.13
2022-10-28T01:34:21.419Z,100548.16
2022-10-28T01:37:11.482Z,100545.31
2022-10-28T01:39:47.539Z,100537.69
2022-10-28T01:42:32.356Z,100544.50
2022-10-28T01:45:17.784Z,100539.78
2022-10-28T01:47:51.194Z,100525.53
2022-10-28T01:50:41.152Z,100517.34
2022-10-28T01:53:14.116Z,100523.72
2022-10-28T01:55:45.840Z,100524.94
2022-10-28T01:58:17.802Z,100529.09
2022-10-28T02:00:46.569Z,100532.91
2022-10-28T02:03:13.770Z,100525.63
2022-10-28T02:05:43.520Z,100525.06
2022-10-28T02:08:38.170Z,100526.72
2022-10-28T02:11:21.390Z,100541.88
2022-10-28T02:14:11.566Z,100521.56
2022-10-28T02:16:48.328Z,100534.72
2022-10-28T02:19:48.608Z,100534.06
2022-10-28T02:22:30.953Z,100530.75
2022-10-28T02:25:17.595Z,100539.31
2022-10-28T02:28:08.066Z,100540.50
2022-10-28T02:30:40.712Z,100540.97
2022-10-28T02:33:12.375Z,100527.16
2022-10-28T02:35:45.699Z,100541.97
2022-10-28T02:38:25.137Z,100518.34
2022-10-28T02:40:56.646Z,100537.94
2022-10-28T02:43:26.199Z,100536.25
2022-10-28T02:45:57.874Z,100511.44
2022-10-28T02:48:33.720Z,100520.03
2022-10-28T02:51:11.468Z,100520.50
2022-10-28T02:54:03.170Z,100519.66
2022-10-28T02:56:34.836Z,100519.47
2022-10-28T02:59:01.855Z,100524.44
2022-10-28T03:01:29.076Z,100529.91
2022-10-28T03:03:56.174Z,100524.56
2022-10-28T03:06:23.263Z,100529.56
2022-10-28T03:08:50.401Z,100527.22
2022-10-28T03:11:19.398Z,100536.41
2022-10-28T03:13:46.464Z,100533.13
2022-10-28T03:16:13.673Z,100537.41
2022-10-28T03:18:40.747Z,100535.41
2022-10-28T03:21:07.840Z,100534.94
2022-10-28T03:23:34.938Z,100542.59
2022-10-28T03:26:01.971Z,100537.25
2022-10-28T03:28:29.034Z,100531.03
2022-10-28T03:30:56.047Z,100536.50
2022-10-28T03:33:23.108Z,100542.34
2022-10-28T03:35:50.303Z,100538.19
2022-10-28T03:38:17.341Z,100516.34
2022-10-28T03:40:44.370Z,100517.41
2022-10-28T03:43:11.403Z,100515.69
2022-10-28T03:45:38.432Z,100523.22
2022-10-28T03:48:05.595Z,100511.91
2022-10-28T03:50:32.710Z,100530.06
2022-10-28T03:52:59.811Z,100519.22
2022-10-28T03:55:27.654Z,100498.06
2022-10-28T03:57:55.140Z,100519.81
2022-10-28T04:00:22.490Z,100511.00
2022-10-28T04:02:51.612Z,100502.44
2022-10-28T04:05:20.051Z,100524.47
2022-10-28T04:07:47.501Z,100519.13
2022-10-28T04:10:14.685Z,100511.25
2022-10-28T04:12:41.739Z,100516.47
2022-10-28T04:15:09.129Z,100517.19
2022-10-28T04:17:36.270Z,100505.78
2022-10-28T04:20:03.759Z,100521.00
2022-10-28T04:22:30.901Z,100492.34
2022-10-28T04:24:57.959Z,100506.88
2022-10-28T04:27:25.017Z,100514.44
2022-10-28T04:29:52.121Z,100508.34
2022-10-28T04:32:19.196Z,100511.16
2022-10-28T04:34:46.252Z,100510.22
2022-10-28T04:37:15.913Z,100500.44
2022-10-28T04:39:45.378Z,100511.44
2022-10-28T04:42:12.437Z,100500.53
2022-10-28T04:44:39.525Z,100504.56
2022-10-28T04:47:06.606Z,100503.38
2022-10-28T04:49:36.661Z,100498.25
2022-10-28T04:52:06.376Z,100515.75
2022-10-28T04:54:33.436Z,100504.81
2022-10-28T04:57:00.497Z,100499.84
2022-10-28T04:59:27.617Z,100499.59
2022-10-28T05:01:54.825Z,100501.25
2022-10-28T05:04:24.405Z,100508.91
2022-10-28T05:06:51.578Z,100501.16
2022-10-28T05:09:18.629Z,100512.25
2022-10-28T05:11:45.725Z,100510.81
2022-10-28T05:14:12.795Z,100517.72
2022-10-28T05:16:39.863Z,100519.41
2022-10-28T05:19:07.069Z,100514.38
2022-10-28T05:21:34.141Z,100519.41
2022-10-28T05:24:01.633Z,100509.06
2022-10-28T05:26:28.746Z,100497.84
2022-10-28T05:28:55.758Z,100502.50
2022-10-28T05:31:22.893Z,100499.53
2022-10-28T05:33:49.903Z,100486.66
2022-10-28T05:36:16.988Z,100510.50
2022-10-28T05:38:45.590Z,100502.97
2022-10-28T05:41:12.779Z,100503.22
2022-10-28T05:43:39.819Z,100498.22
2022-10-28T05:46:06.931Z,100502.97
2022-10-28T05:48:34.249Z,100508.34
2022-10-28T05:51:01.392Z,100515.84
2022-10-28T05:53:28.454Z,100513.56
2022-10-28T05:55:55.504Z,100523.00
2022-10-28T05:58:22.552Z,100524.44
2022-10-28T06:00:49.656Z,100515.84
2022-10-28T06:03:16.783Z,100511.78
2022-10-28T06:05:45.397Z,100516.09
2022-10-28T06:08:13.708Z,100507.50
2022-10-28T06:10:42.386Z,100508.72
2022-10-28T06:13:08.197Z,100512.75
2022-10-28T06:15:35.244Z,100511.34
2022-10-28T06:18:03.136Z,100503.69
2022-10-28T06:20:31.934Z,100513.13
2022-10-28T06:22:59.010Z,100505.72
2022-10-28T06:25:26.431Z,100506.53
2022-10-28T06:28:01.134Z,100491.97
2022-10-28T06:30:28.439Z,100490.31
2022-10-28T06:32:56.378Z,100480.09
2022-10-28T06:35:23.477Z,100505.09
2022-10-28T06:37:55.477Z,100493.88
2022-10-28T06:40:24.566Z,100487.56
2022-10-28T06:42:59.722Z,100491.72
2022-10-28T06:45:28.177Z,100491.47
2022-10-28T06:48:03.257Z,100482.91
2022-10-28T06:50:30.822Z,100498.66
2022-10-28T06:52:59.137Z,100496.25
2022-10-28T06:55:27.075Z,100480.97
2022-10-28T06:57:55.973Z,100489.31
2022-10-28T07:00:23.417Z,100487.41
2022-10-28T07:02:52.519Z,100480.50
2022-10-28T07:05:20.579Z,100467.22
2022-10-28T07:07:47.643Z,100471.88
2022-10-28T07:10:14.852Z,100478.41
2022-10-28T07:12:41.896Z,100465.19
2022-10-28T07:15:09.944Z,100477.06
2022-10-28T07:17:37.211Z,100482.59
2022-10-28T07:20:04.563Z,100476.84
2022-10-28T07:22:31.632Z,100479.19
2022-10-28T07:24:58.790Z,100475.31
2022-10-28T07:27:25.893Z,100465.28
2022-10-28T07:29:52.937Z,100466.63
2022-10-28T07:32:20.012Z,100460.84
2022-10-28T07:34:47.160Z,100464.00
2022-10-28T07:37:14.246Z,100454.25
2022-10-28T07:39:41.310Z,100462.34
2022-10-28T07:42:08.345Z,100468.06
2022-10-28T07:44:35.389Z,100464.97
2022-10-28T07:47:02.548Z,100471.44
2022-10-28T07:49:29.638Z,100475.63
2022-10-28T07:51:56.850Z,100470.06
2022-10-28T07:54:23.924Z,100472.50
2022-10-28T07:56:50.987Z,100471.75
2022-10-28T07:59:25.771Z,100483.59
2022-10-28T08:01:54.637Z,100475.09
2022-10-28T08:04:21.871Z,100464.06
2022-10-28T08:06:48.928Z,100474.56
2022-10-28T08:09:17.088Z,100448.53
2022-10-28T08:11:44.144Z,100471.81
2022-10-28T08:14:11.401Z,100469.56
2022-10-28T08:16:38.537Z,100445.50
2022-10-28T08:19:07.863Z,100440.06
2022-10-28T08:21:35.099Z,100455.31
2022-10-28T08:24:02.193Z,100466.22
2022-10-28T08:26:29.244Z,100454.59
2022-10-28T08:28:56.524Z,100457.91
2022-10-28T08:31:23.608Z,100470.47
2022-10-28T08:33:50.625Z,100469.94
2022-10-28T08:36:17.654Z,100464.13
2022-10-28T08:38:47.616Z,100453.31
2022-10-28T08:41:17.425Z,100459.81
2022-10-28T08:43:57.746Z,100463.53
2022-10-28T08:46:41.030Z,100467.78
2022-10-28T08:49:12.780Z,100463.13
2022-10-28T08:52:03.857Z,100455.59
2022-10-28T08:54:36.465Z,100447.59
2022-10-28T08:57:08.446Z,100447.44
2022-10-28T08:59:39.264Z,100437.19
2022-10-28T09:02:25.211Z,100450.63
2022-10-28T09:05:05.239Z,100444.09
2022-10-28T09:07:37.103Z,100443.56
2022-10-28T09:10:05.987Z,100446.56
2022-10-28T09:12:39.003Z,100429.44
2022-10-28T09:15:43.174Z,100439.22
2022-10-28T09:19:05.691Z,100421.94
2022-10-28T09:21:40.740Z,100410.44
2022-10-28T09:24:19.072Z,100419.81
2022-10-28T09:27:09.435Z,100403.19
2022-10-28T09:29:43.275Z,100401.25
2022-10-28T09:32:23.627Z,100406.53
2022-10-28T09:35:00.061Z,100398.63
2022-10-28T09:37:37.318Z,100406.50
2022-10-28T09:40:24.856Z,100401.22
2022-10-28T09:43:18.651Z,100407.06
2022-10-28T09:45:49.091Z,100404.31
2022-10-28T09:48:37.993Z,100396.09
2022-10-28T09:51:05.237Z,100386.66
2022-10-28T09:53:51.666Z,100378.44
2022-10-28T09:56:18.814Z,100385.41
2022-10-28T09:58:47.448Z,100369.69
2022-10-28T10:01:17.105Z,100376.75
2022-10-28T10:03:45.710Z,100368.44
2022-10-28T10:06:18.327Z,100377.28
2022-10-28T10:08:46.039Z,100375.91
2022-10-28T10:11:26.554Z,100366.44
2022-10-28T10:13:55.496Z,100368.66
2022-10-28T10:16:31.622Z,100365.88
2022-10-28T10:19:02.012Z,100365.56
2022-10-28T10:21:46.833Z,100359.22
2022-10-28T10:24:31.453Z,100370.41
2022-10-28T10:27:12.592Z,100369.00
2022-10-28T10:29:45.912Z,100365.22
2022-10-28T10:32:25.020Z,100362.59
2022-10-28T10:35:06.787Z,100354.75
2022-10-28T10:37:36.288Z,100364.56
2022-10-28T10:40:05.956Z,100338.59
2022-10-28T10:42:39.216Z,100364.25
2022-10-28T10:45:16.482Z,100361.44
2022-10-28T10:47:43.614Z,100350.16
2022-10-28T10:50:28.728Z,100342.25
2022-10-28T10:52:59.279Z,100344.41
2022-10-28T10:55:41.902Z,100339.59
2022-10-28T10:58:18.367Z,100340.22
2022-10-28T11:00:49.367Z,100329.44
2022-10-28T11:03:41.937Z,100326.78
2022-10-28T11:06:24.822Z,100344.91
2022-10-28T11:08:58.502Z,100339.50
2022-10-28T11:11:39.859Z,100337.38
2022-10-28T11:14:22.855Z,100346.44
2022-10-28T11:17:01.121Z,100337.41
2022-10-28T11:19:29.799Z,100337.38
2022-10-28T11:22:05.769Z,100337.25
2022-10-28T11:25:12.761Z,100345.97
2022-10-28T11:27:58.737Z,100339.63
2022-10-28T11:30:45.706Z,100329.69
2022-10-28T11:33:35.013Z,100320.91
2022-10-28T11:36:35.096Z,100317.47
2022-10-28T11:39:28.175Z,100332.41
2022-10-28T11:41:57.755Z,100317.41
2022-10-28T11:44:43.186Z,100315.16
2022-10-28T11:47:50.435Z,100304.59
2022-10-28T11:50:17.433Z,100304.06
2022-10-28T11:53:05.895Z,100315.75
2022-10-28T11:55:38.566Z,100315.16
2022-10-28T11:58:26.642Z,100307.94
2022-10-28T12:01:12.441Z,100306.97
2022-10-28T12:04:03.813Z,100309.00
2022-10-28T12:06:56.002Z,100310.41
2022-10-28T12:09:23.092Z,100301.78
2022-10-28T12:12:11.467Z,100297.47
2022-10-28T12:14:51.544Z,100285.94
2022-10-28T12:17:44.845Z,100267.50
2022-10-28T12:20:18.711Z,100300.94
2022-10-28T12:22:49.448Z,100300.94
2022-10-28T12:25:19.453Z,100293.72
2022-10-28T12:27:50.476Z,100293.38
2022-10-28T12:30:33.409Z,100288.13
2022-10-28T12:33:11.465Z,100263.41
2022-10-28T12:35:45.083Z,100276.69
2022-10-28T12:38:30.268Z,100257.63
2022-10-28T12:40:57.304Z,100281.81
2022-10-28T12:43:34.591Z,100258.44
2022-10-28T12:46:02.457Z,100273.06
2022-10-28T12:48:41.711Z,100259.81
2022-10-28T12:51:23.939Z,100285.00
2022-10-28T12:54:21.990Z,100290.84
2022-10-28T12:57:04.638Z,100284.78
2022-10-28T12:59:39.077Z,100256.25
2022-10-28T13:02:17.605Z,100278.94
2022-10-28T13:04:45.044Z,100290.00
2022-10-28T13:07:27.070Z,100286.94
2022-10-28T13:09:56.964Z,100273.66
2022-10-28T13:12:48.536Z,100283.09
2022-10-28T13:15:35.003Z,100272.97
2022-10-28T13:18:23.803Z,100280.91
2022-10-28T13:21:11.706Z,100276.03
2022-10-28T13:23:48.998Z,100267.28
2022-10-28T13:26:25.421Z,100268.09
2022-10-28T13:28:56.125Z,100267.56
2022-10-28T13:31:23.541Z,100265.06
2022-10-28T13:34:00.352Z,100268.53
2022-10-28T13:36:36.347Z,100239.06
2022-10-28T13:39:07.455Z,100257.91
2022-10-28T13:41:44.757Z,100259.56
2022-10-28T13:44:25.608Z,100255.03
2022-10-28T13:47:03.822Z,100256.69
2022-10-28T13:49:33.921Z,100249.63
2022-10-28T13:52:06.801Z,100261.47
2022-10-28T13:54:58.977Z,100268.25
2022-10-28T13:57:32.455Z,100272.09
2022-10-28T14:00:23.542Z,100267.91
2022-10-28T14:03:17.307Z,100253.63
2022-10-28T14:05:44.450Z,100262.63
2022-10-28T14:08:25.110Z,100221.38
2022-10-28T14:11:05.780Z,100256.03
2022-10-28T14:13:40.072Z,100255.13
2022-10-28T14:16:32.516Z,100253.75
2022-10-28T14:19:04.324Z,100255.69
2022-10-28T14:21:56.516Z,100250.97
2022-10-28T14:24:45.536Z,100247.38
2022-10-28T14:27:15.901Z,100243.50
2022-10-28T14:29:45.010Z,100238.84
2022-10-28T14:32:30.822Z,100248.66
2022-10-28T14:35:27.063Z,100225.81
2022-10-28T14:38:51.127Z,100240.19
2022-10-28T14:41:18.258Z,100245.72
2022-10-28T14:43:52.837Z,100242.53
2022-10-28T14:46:47.256Z,100242.84
2022-10-28T14:49:19.353Z,100245.72
2022-10-28T14:51:47.410Z,100241.28
2022-10-28T14:54:24.707Z,100238.50
2022-10-28T14:56:56.572Z,100236.44
2022-10-28T14:59:43.231Z,100239.41
2022-10-28T15:02:18.523Z,100242.53
2022-10-28T15:04:47.838Z,100237.59
2022-10-28T15:07:20.647Z,100236.06
2022-10-28T15:09:54.077Z,100230.81
2022-10-28T15:12:26.057Z,100229.53
2022-10-28T15:14:55.990Z,100226.72
2022-10-28T15:17:25.905Z,100228.84
2022-10-28T15:19:55.902Z,100218.31
2022-10-28T15:22:32.263Z,100227.41
2022-10-28T15:25:10.998Z,100226.34
2022-10-28T15:27:41.502Z,100230.81
2022-10-28T15:30:20.852Z,100233.34
2022-10-28T15:32:47.934Z,100209.91
2022-10-28T15:35:27.621Z,100238.44
2022-10-28T15:37:55.334Z,100232.19
2022-10-28T15:40:29.526Z,100209.34
2022-10-28T15:43:05.434Z,100232.56
2022-10-28T15:45:39.684Z,100223.09
2022-10-28T15:48:29.631Z,100208.13
2022-10-28T15:51:17.337Z,100202.91
2022-10-28T15:53:46.015Z,100208.56
2022-10-28T15:56:16.154Z,100218.13
2022-10-28T15:59:21.250Z,100210.78
2022-10-28T16:01:48.695Z,100193.03
2022-10-28T16:04:20.156Z,100201.88
2022-10-28T16:06:47.752Z,100194.78
2022-10-28T16:09:21.261Z,100203.38
2022-10-28T16:11:51.584Z,100200.88
2022-10-28T16:14:31.159Z,100196.78
2022-10-28T16:17:17.867Z,100202.59
2022-10-28T16:19:54.006Z,100204.19
2022-10-28T16:22:23.683Z,100220.41
2022-10-28T16:24:52.297Z,100210.91
2022-10-28T16:27:21.837Z,100220.03
2022-10-28T16:29:50.097Z,100214.84
2022-10-28T16:32:21.326Z,100210.78
2022-10-28T16:34:48.468Z,100205.25
2022-10-28T16:37:29.982Z,100199.22
2022-10-28T16:40:00.237Z,100189.34
2022-10-28T16:42:27.720Z,100192.91
2022-10-28T16:44:55.072Z,100199.69
2022-10-28T16:47:35.507Z,100204.78
2022-10-28T16:50:02.778Z,100194.66
2022-10-28T16:52:30.366Z,100181.25
2022-10-28T16:54:58.060Z,100186.97
2022-10-28T16:57:26.191Z,100183.66
2022-10-28T16:59:54.053Z,100186.88
2022-10-28T17:02:35.393Z,100188.69
2022-10-28T17:05:07.513Z,100167.66
2022-10-28T17:07:34.583Z,100184.25
2022-10-28T17:10:01.609Z,100180.34
2022-10-28T17:12:30.646Z,100167.84
2022-10-28T17:14:57.719Z,100177.13
2022-10-28T17:17:24.827Z,100174.47
2022-10-28T17:19:51.901Z,100172.53
2022-10-28T17:22:18.948Z,100176.66
2022-10-28T17:24:46.410Z,100177.81
2022-10-28T17:27:14.531Z,100174.84
2022-10-28T17:29:41.675Z,100174.69
2022-10-28T17:32:08.912Z,100168.09
2022-10-28T17:34:37.120Z,100166.94
2022-10-28T17:37:04.922Z,100161.66
2022-10-28T17:39:32.023Z,100157.50
2022-10-28T17:41:59.508Z,100148.59
2022-10-28T17:44:26.672Z,100148.06
2022-10-28T17:46:53.769Z,100157.50
2022-10-28T17:49:20.943Z,100154.97
2022-10-28T17:51:47.973Z,100134.66
2022-10-28T17:54:15.140Z,100137.66
2022-10-28T17:56:42.504Z,100143.03
2022-10-28T17:59:09.665Z,100123.72
2022-10-28T18:01:37.001Z,100151.91
2022-10-28T18:04:05.515Z,100135.31
2022-10-28T18:06:32.672Z,100145.56
2022-10-28T18:08:59.818Z,100137.28
2022-10-28T18:11:27.619Z,100149.03
2022-10-28T18:13:56.401Z,100144.31
2022-10-28T18:16:27.877Z,100148.28
2022-10-28T18:18:55.907Z,100141.69
2022-10-28T18:21:24.722Z,100138.34
2022-10-28T18:23:53.361Z,100140.56
2022-10-28T18:26:21.125Z,100145.47
2022-10-28T18:28:49.243Z,100148.41
2022-10-28T18:31:18.645Z,100138.19
2022-10-28T18:33:46.674Z,100141.78
2022-10-28T18:36:19.635Z,100137.28
2022-10-28T18:38:46.785Z,100138.78
2022-10-28T18:41:21.959Z,100136.13
2022-10-28T18:43:53.972Z,100139.59
2022-10-28T18:46:21.660Z,100137.94
2022-10-28T18:48:49.367Z,100135.63
2022-10-28T18:51:16.483Z,100114.38
2022-10-28T18:53:46.163Z,100136.53
2022-10-28T18:56:16.456Z,100135.16
2022-10-28T18:58:44.068Z,100132.81
2022-10-28T19:01:12.551Z,100130.16
2022-10-28T19:03:40.577Z,100118.81
2022-10-28T19:06:13.508Z,100130.78
2022-10-28T19:08:40.921Z,100132.72
2022-10-28T19:11:09.560Z,100133.41
2022-10-28T19:13:38.789Z,100135.75
2022-10-28T19:16:06.818Z,100132.59
2022-10-28T19:18:35.665Z,100131.91
2022-10-28T19:21:08.441Z,100133.41
2022-10-28T19:23:35.557Z,100128.22
2022-10-28T19:26:04.696Z,100135.38
2022-10-28T19:28:38.492Z,100113.03
2022-10-28T19:31:09.079Z,100119.19
2022-10-28T19:33:38.396Z,100120.28
2022-10-28T19:36:11.180Z,100103.16
2022-10-28T19:38:38.585Z,100120.59
2022-10-28T19:41:12.574Z,100107.00
2022-10-28T19:43:41.232Z,100096.38
2022-10-28T19:46:14.452Z,100116.94
2022-10-28T19:48:43.448Z,100113.66
2022-10-28T19:51:14.530Z,100115.31
2022-10-28T19:54:07.561Z,100102.50
2022-10-28T19:56:35.254Z,100104.50
2022-10-28T19:59:04.015Z,100092.56
2022-10-28T20:01:33.755Z,100110.75
2022-10-28T20:04:01.208Z,100116.78
2022-10-28T20:06:34.498Z,100109.25
2022-10-28T20:09:03.947Z,100098.09
2022-10-28T20:11:33.424Z,100097.22
2022-10-28T20:14:04.853Z,100089.69
2022-10-28T20:16:33.115Z,100087.72
2022-10-28T20:19:00.488Z,100075.50
2022-10-28T20:21:33.493Z,100085.47
2022-10-28T20:24:01.128Z,100070.09
2022-10-28T20:26:30.818Z,100083.59
2022-10-28T20:28:58.931Z,100075.84
2022-10-28T20:31:29.488Z,100074.38
2022-10-28T20:34:03.558Z,100065.59
2022-10-28T20:36:38.952Z,100069.22
2022-10-28T20:39:17.623Z,100065.59
2022-10-28T20:41:47.111Z,100060.94
2022-10-28T20:44:16.491Z,100062.13
2022-10-28T20:46:48.022Z,100046.75
2022-10-28T20:49:15.512Z,100065.88
2022-10-28T20:51:42.820Z,100044.22
2022-10-28T20:54:10.012Z,100050.59
2022-10-28T20:56:40.764Z,100044.03
2022-10-28T20:59:08.234Z,100047.88
2022-10-28T21:01:38.133Z,100030.03
2022-10-28T21:04:07.969Z,100041.78
2022-10-28T21:06:36.574Z,100032.00
2022-10-28T21:09:05.321Z,100020.63
2022-10-28T21:11:35.605Z,100000.38
2022-10-28T21:14:02.815Z,100013.75
2022-10-28T21:16:30.525Z,100012.56
2022-10-28T21:18:59.364Z,100036.34
2022-10-28T21:21:27.335Z,100030.03
2022-10-28T21:23:54.542Z,100021.41
2022-10-28T21:26:21.913Z,100034.38
2022-10-28T21:28:52.342Z,100036.25
2022-10-28T21:31:20.835Z,100032.09
2022-10-28T21:36:21.771Z,99996.75
2022-10-28T21:38:52.472Z,100023.50
2022-10-28T21:41:20.854Z,100008.31
2022-10-28T21:43:49.805Z,100013.19
2022-10-28T21:46:21.785Z,100022.28
2022-10-28T21:48:49.105Z,100014.22
2022-10-28T21:51:17.736Z,100015.03
2022-10-28T21:53:45.545Z,100024.13
2022-10-28T21:56:19.325Z,100019.88
2022-10-28T21:58:48.946Z,99988.34
2022-10-28T22:01:23.977Z,100006.22
2022-10-28T22:03:54.653Z,99984.72
2022-10-28T22:06:22.611Z,99997.75
2022-10-28T22:08:49.695Z,99997.56
2022-10-28T22:11:18.864Z,100001.91
2022-10-28T22:13:47.165Z,99993.25
2022-10-28T22:16:16.613Z,99986.97
2022-10-28T22:18:44.518Z,99988.34
2022-10-28T22:21:14.773Z,99975.09
2022-10-28T22:23:42.677Z,99986.97
2022-10-28T22:26:12.453Z,99993.78
2022-10-28T22:28:39.888Z,99991.13
2022-10-28T22:31:09.613Z,99991.25
2022-10-28T22:33:37.192Z,99972.44
2022-10-28T22:36:09.736Z,99983.03
2022-10-28T22:38:37.232Z,99969.44
2022-10-28T22:41:05.877Z,99985.28
2022-10-28T22:43:33.583Z,99966.44
2022-10-28T22:46:01.582Z,99976.88
2022-10-28T22:48:29.230Z,99969.50
2022-10-28T22:50:57.184Z,99958.25
2022-10-28T22:53:26.729Z,99966.69
2022-10-28T22:55:54.640Z,99962.25
2022-10-28T22:58:23.437Z,99964.25
2022-10-28T23:00:51.021Z,99937.84
2022-10-28T23:03:18.766Z,99956.69
2022-10-28T23:05:45.797Z,99941.66
2022-10-28T23:08:15.852Z,99951.41
2022-10-28T23:10:43.041Z,99946.13
2022-10-28T23:13:13.627Z,99946.09
2022-10-28T23:15:40.652Z,99948.44
2022-10-28T23:18:07.759Z,99948.09
2022-10-28T23:20:35.834Z,99940.63
2022-10-28T23:23:03.205Z,99926.22
2022-10-28T23:25:30.272Z,99943.06
2022-10-28T23:27:57.589Z,99936.16
2022-10-28T23:30:25.045Z,99943.56
2022-10-28T23:32:52.081Z,99937.81
2022-10-28T23:35:19.099Z,99941.91
2022-10-28T23:37:46.149Z,99935.84
2022-10-28T23:40:13.242Z,99942.75
2022-10-28T23:42:40.546Z,99919.31
2022-10-28T23:45:09.554Z,99933.84
2022-10-28T23:47:36.706Z,99936.19
2022-10-28T23:50:04.188Z,99928.56
2022-10-28T23:52:31.306Z,99933.25
2022-10-28T23:54:58.392Z,99939.13
2022-10-28T23:57:25.468Z,99947.72
2022-10-28T23:59:53.674Z,99939.66
